sensor_id;sensor_type;location;lat;lon;timestamp;P1;durP1;ratioP1;P2;durP2;ratioP2
21299;SDS011;10809;49.476;11.016;2023-12-29T00:02:15;0.50;;;0.40;;
21299;SDS011;10809;49.476;11.016;2023-12-29T00:04:45;0.27;;;0.27;;
21299;SDS011;10809;49.476;11.016;2023-12-29T00:07:16;0.90;;;0.50;;
21299;SDS011;10809;49.476;11.016;2023-12-29T00:09:46;0.77;;;0.50;;
21299;SDS011;10809;49.476;11.016;2023-12-29T00:12:16;0.23;;;0.23;;
21299;SDS011;10809;49.476;11.016;2023-12-29T00:14:46;0.93;;;0.60;;
21299;SDS011;10809;49.476;11.016;2023-12-29T00:17:17;0.50;;;0.50;;
21299;SDS011;10809;49.476;11.016;2023-12-29T00:19:47;0.53;;;0.50;;
21299;SDS011;10809;49.476;11.016;2023-12-29T00:22:17;1.03;;;0.60;;
21299;SDS011;10809;49.476;11.016;2023-12-29T00:24:54;0.30;;;0.30;;
21299;SDS011;10809;49.476;11.016;2023-12-29T00:27:26;0.40;;;0.33;;
21299;SDS011;10809;49.476;11.016;2023-12-29T00:29:57;0.60;;;0.50;;
21299;SDS011;10809;49.476;11.016;2023-12-29T00:32:28;0.67;;;0.63;;
21299;SDS011;10809;49.476;11.016;2023-12-29T00:35:01;0.93;;;0.60;;
21299;SDS011;10809;49.476;11.016;2023-12-29T00:37:31;0.40;;;0.40;;
21299;SDS011;10809;49.476;11.016;2023-12-29T00:40:02;0.70;;;0.60;;
21299;SDS011;10809;49.476;11.016;2023-12-29T00:42:35;0.67;;;0.60;;
21299;SDS011;10809;49.476;11.016;2023-12-29T00:45:09;0.87;;;0.60;;
21299;SDS011;10809;49.476;11.016;2023-12-29T00:47:45;0.40;;;0.40;;
21299;SDS011;10809;49.476;11.016;2023-12-29T00:50:16;0.50;;;0.50;;
21299;SDS011;10809;49.476;11.016;2023-12-29T00:52:47;1.63;;;0.40;;
21299;SDS011;10809;49.476;11.016;2023-12-29T00:55:18;0.40;;;0.40;;
21299;SDS011;10809;49.476;11.016;2023-12-29T00:57:54;0.40;;;0.40;;
21299;SDS011;10809;49.476;11.016;2023-12-29T01:00:25;0.30;;;0.30;;
21299;SDS011;10809;49.476;11.016;2023-12-29T01:02:55;0.40;;;0.40;;
21299;SDS011;10809;49.476;11.016;2023-12-29T01:05:25;0.40;;;0.40;;
21299;SDS011;10809;49.476;11.016;2023-12-29T01:08:00;0.50;;;0.50;;
21299;SDS011;10809;49.476;11.016;2023-12-29T01:10:31;1.00;;;0.77;;
21299;SDS011;10809;49.476;11.016;2023-12-29T01:13:01;0.67;;;0.60;;
21299;SDS011;10809;49.476;11.016;2023-12-29T01:15:31;1.10;;;0.73;;
21299;SDS011;10809;49.476;11.016;2023-12-29T01:18:05;0.87;;;0.87;;
21299;SDS011;10809;49.476;11.016;2023-12-29T01:20:35;0.60;;;0.57;;
21299;SDS011;10809;49.476;11.016;2023-12-29T01:23:05;0.53;;;0.53;;
21299;SDS011;10809;49.476;11.016;2023-12-29T01:25:39;0.70;;;0.70;;
21299;SDS011;10809;49.476;11.016;2023-12-29T01:28:12;0.60;;;0.60;;
21299;SDS011;10809;49.476;11.016;2023-12-29T01:30:45;0.77;;;0.77;;
21299;SDS011;10809;49.476;11.016;2023-12-29T01:33:16;0.80;;;0.80;;
21299;SDS011;10809;49.476;11.016;2023-12-29T01:35:50;1.03;;;0.93;;
21299;SDS011;10809;49.476;11.016;2023-12-29T01:38:20;0.40;;;0.40;;
21299;SDS011;10809;49.476;11.016;2023-12-29T01:40:50;0.50;;;0.50;;
21299;SDS011;10809;49.476;11.016;2023-12-29T01:43:21;0.67;;;0.47;;
21299;SDS011;10809;49.476;11.016;2023-12-29T01:45:51;1.10;;;0.60;;
21299;SDS011;10809;49.476;11.016;2023-12-29T01:48:22;0.50;;;0.50;;
21299;SDS011;10809;49.476;11.016;2023-12-29T01:51:00;0.40;;;0.40;;
21299;SDS011;10809;49.476;11.016;2023-12-29T01:53:31;0.87;;;0.67;;
21299;SDS011;10809;49.476;11.016;2023-12-29T01:56:01;0.40;;;0.40;;
21299;SDS011;10809;49.476;11.016;2023-12-29T01:58:31;0.50;;;0.43;;
21299;SDS011;10809;49.476;11.016;2023-12-29T02:01:02;0.47;;;0.47;;
21299;SDS011;10809;49.476;11.016;2023-12-29T02:03:34;0.50;;;0.50;;
21299;SDS011;10809;49.476;11.016;2023-12-29T02:06:05;0.43;;;0.43;;
21299;SDS011;10809;49.476;11.016;2023-12-29T02:08:36;0.67;;;0.60;;
21299;SDS011;10809;49.476;11.016;2023-12-29T02:11:07;0.40;;;0.40;;
21299;SDS011;10809;49.476;11.016;2023-12-29T02:13:38;0.53;;;0.40;;
21299;SDS011;10809;49.476;11.016;2023-12-29T02:16:30;1.10;;;0.50;;
21299;SDS011;10809;49.476;11.016;2023-12-29T02:19:25;0.83;;;0.63;;
21299;SDS011;10809;49.476;11.016;2023-12-29T02:21:58;1.10;;;0.53;;
21299;SDS011;10809;49.476;11.016;2023-12-29T02:24:33;0.30;;;0.30;;
21299;SDS011;10809;49.476;11.016;2023-12-29T02:27:11;0.53;;;0.40;;
21299;SDS011;10809;49.476;11.016;2023-12-29T02:29:50;0.50;;;0.50;;
21299;SDS011;10809;49.476;11.016;2023-12-29T02:32:32;0.83;;;0.50;;
21299;SDS011;10809;49.476;11.016;2023-12-29T02:35:13;0.50;;;0.47;;
21299;SDS011;10809;49.476;11.016;2023-12-29T02:37:47;0.60;;;0.50;;
21299;SDS011;10809;49.476;11.016;2023-12-29T02:40:18;0.63;;;0.50;;
21299;SDS011;10809;49.476;11.016;2023-12-29T02:42:52;0.40;;;0.40;;
21299;SDS011;10809;49.476;11.016;2023-12-29T02:45:22;1.00;;;0.70;;
21299;SDS011;10809;49.476;11.016;2023-12-29T02:47:52;0.73;;;0.60;;
21299;SDS011;10809;49.476;11.016;2023-12-29T02:50:23;0.87;;;0.30;;
21299;SDS011;10809;49.476;11.016;2023-12-29T02:52:53;0.40;;;0.40;;
21299;SDS011;10809;49.476;11.016;2023-12-29T02:55:23;0.73;;;0.63;;
21299;SDS011;10809;49.476;11.016;2023-12-29T02:57:54;0.40;;;0.40;;
21299;SDS011;10809;49.476;11.016;2023-12-29T03:00:27;0.57;;;0.57;;
21299;SDS011;10809;49.476;11.016;2023-12-29T03:03:04;0.40;;;0.40;;
21299;SDS011;10809;49.476;11.016;2023-12-29T03:05:34;0.80;;;0.80;;
21299;SDS011;10809;49.476;11.016;2023-12-29T03:08:04;0.80;;;0.80;;
21299;SDS011;10809;49.476;11.016;2023-12-29T03:10:35;1.27;;;0.97;;
21299;SDS011;10809;49.476;11.016;2023-12-29T03:13:05;0.70;;;0.70;;
21299;SDS011;10809;49.476;11.016;2023-12-29T03:15:45;1.00;;;0.90;;
21299;SDS011;10809;49.476;11.016;2023-12-29T03:18:15;0.73;;;0.60;;
21299;SDS011;10809;49.476;11.016;2023-12-29T03:20:45;0.97;;;0.87;;
21299;SDS011;10809;49.476;11.016;2023-12-29T03:23:16;0.97;;;0.70;;
21299;SDS011;10809;49.476;11.016;2023-12-29T03:25:46;2.57;;;0.70;;
21299;SDS011;10809;49.476;11.016;2023-12-29T03:28:17;1.00;;;1.00;;
21299;SDS011;10809;49.476;11.016;2023-12-29T03:30:47;0.80;;;0.80;;
21299;SDS011;10809;49.476;11.016;2023-12-29T03:33:20;0.90;;;0.90;;
21299;SDS011;10809;49.476;11.016;2023-12-29T03:35:57;2.03;;;0.87;;
21299;SDS011;10809;49.476;11.016;2023-12-29T03:38:28;0.70;;;0.70;;
21299;SDS011;10809;49.476;11.016;2023-12-29T03:40:58;1.07;;;0.87;;
21299;SDS011;10809;49.476;11.016;2023-12-29T03:43:28;1.43;;;0.80;;
21299;SDS011;10809;49.476;11.016;2023-12-29T03:45:58;1.17;;;0.83;;
21299;SDS011;10809;49.476;11.016;2023-12-29T03:48:29;1.10;;;0.67;;
21299;SDS011;10809;49.476;11.016;2023-12-29T03:51:02;1.00;;;1.00;;
21299;SDS011;10809;49.476;11.016;2023-12-29T03:53:33;0.80;;;0.80;;
21299;SDS011;10809;49.476;11.016;2023-12-29T03:56:13;0.80;;;0.70;;
21299;SDS011;10809;49.476;11.016;2023-12-29T03:58:51;0.80;;;0.80;;
21299;SDS011;10809;49.476;11.016;2023-12-29T04:01:21;1.10;;;1.00;;
21299;SDS011;10809;49.476;11.016;2023-12-29T04:03:51;2.13;;;1.10;;
21299;SDS011;10809;49.476;11.016;2023-12-29T04:06:22;0.80;;;0.80;;
21299;SDS011;10809;49.476;11.016;2023-12-29T04:08:52;1.40;;;0.80;;
21299;SDS011;10809;49.476;11.016;2023-12-29T04:11:23;0.90;;;0.90;;
21299;SDS011;10809;49.476;11.016;2023-12-29T04:13:59;0.80;;;0.80;;
21299;SDS011;10809;49.476;11.016;2023-12-29T04:16:29;0.80;;;0.80;;
21299;SDS011;10809;49.476;11.016;2023-12-29T04:19:00;1.43;;;1.33;;
21299;SDS011;10809;49.476;11.016;2023-12-29T04:21:30;0.80;;;0.80;;
21299;SDS011;10809;49.476;11.016;2023-12-29T04:24:01;0.90;;;0.90;;
21299;SDS011;10809;49.476;11.016;2023-12-29T04:26:38;1.27;;;1.07;;
21299;SDS011;10809;49.476;11.016;2023-12-29T04:29:09;1.03;;;1.00;;
21299;SDS011;10809;49.476;11.016;2023-12-29T04:31:52;1.27;;;1.20;;
21299;SDS011;10809;49.476;11.016;2023-12-29T04:34:23;1.30;;;1.20;;
21299;SDS011;10809;49.476;11.016;2023-12-29T04:36:56;1.33;;;1.23;;
21299;SDS011;10809;49.476;11.016;2023-12-29T04:39:27;1.37;;;1.27;;
21299;SDS011;10809;49.476;11.016;2023-12-29T04:41:57;1.80;;;1.20;;
21299;SDS011;10809;49.476;11.016;2023-12-29T04:44:27;0.60;;;0.60;;
21299;SDS011;10809;49.476;11.016;2023-12-29T04:46:57;1.80;;;1.10;;
21299;SDS011;10809;49.476;11.016;2023-12-29T04:49:31;1.30;;;0.93;;
21299;SDS011;10809;49.476;11.016;2023-12-29T04:52:01;1.97;;;1.57;;
21299;SDS011;10809;49.476;11.016;2023-12-29T04:54:32;2.03;;;1.17;;
21299;SDS011;10809;49.476;11.016;2023-12-29T04:57:05;1.00;;;0.73;;
21299;SDS011;10809;49.476;11.016;2023-12-29T04:59:35;1.00;;;0.90;;
21299;SDS011;10809;49.476;11.016;2023-12-29T05:02:06;1.77;;;0.83;;
21299;SDS011;10809;49.476;11.016;2023-12-29T05:04:36;1.27;;;0.83;;
21299;SDS011;10809;49.476;11.016;2023-12-29T05:07:08;0.67;;;0.67;;
21299;SDS011;10809;49.476;11.016;2023-12-29T05:09:42;1.07;;;0.97;;
21299;SDS011;10809;49.476;11.016;2023-12-29T05:12:12;0.77;;;0.77;;
21299;SDS011;10809;49.476;11.016;2023-12-29T05:14:43;0.80;;;0.70;;
21299;SDS011;10809;49.476;11.016;2023-12-29T05:17:13;0.87;;;0.87;;
21299;SDS011;10809;49.476;11.016;2023-12-29T05:19:44;0.80;;;0.80;;
21299;SDS011;10809;49.476;11.016;2023-12-29T05:22:18;0.80;;;0.80;;
21299;SDS011;10809;49.476;11.016;2023-12-29T05:24:48;1.30;;;0.93;;
21299;SDS011;10809;49.476;11.016;2023-12-29T05:27:18;0.73;;;0.73;;
21299;SDS011;10809;49.476;11.016;2023-12-29T05:29:48;0.97;;;0.70;;
21299;SDS011;10809;49.476;11.016;2023-12-29T05:32:19;0.70;;;0.70;;
21299;SDS011;10809;49.476;11.016;2023-12-29T05:34:49;0.80;;;0.67;;
21299;SDS011;10809;49.476;11.016;2023-12-29T05:37:19;0.83;;;0.80;;
21299;SDS011;10809;49.476;11.016;2023-12-29T05:39:50;0.50;;;0.50;;
21299;SDS011;10809;49.476;11.016;2023-12-29T05:42:21;1.10;;;0.80;;
21299;SDS011;10809;49.476;11.016;2023-12-29T05:44:57;0.60;;;0.60;;
21299;SDS011;10809;49.476;11.016;2023-12-29T05:47:28;0.80;;;0.70;;
21299;SDS011;10809;49.476;11.016;2023-12-29T05:49:58;1.07;;;0.80;;
21299;SDS011;10809;49.476;11.016;2023-12-29T05:52:28;0.83;;;0.83;;
21299;SDS011;10809;49.476;11.016;2023-12-29T05:54:59;0.67;;;0.67;;
21299;SDS011;10809;49.476;11.016;2023-12-29T05:57:29;0.80;;;0.80;;
21299;SDS011;10809;49.476;11.016;2023-12-29T05:59:59;0.93;;;0.93;;
21299;SDS011;10809;49.476;11.016;2023-12-29T06:02:29;1.20;;;1.10;;
21299;SDS011;10809;49.476;11.016;2023-12-29T06:05:00;1.13;;;0.97;;
21299;SDS011;10809;49.476;11.016;2023-12-29T06:07:30;0.67;;;0.67;;
21299;SDS011;10809;49.476;11.016;2023-12-29T06:10:00;2.00;;;1.10;;
21299;SDS011;10809;49.476;11.016;2023-12-29T06:12:31;0.87;;;0.80;;
21299;SDS011;10809;49.476;11.016;2023-12-29T06:15:13;0.63;;;0.63;;
21299;SDS011;10809;49.476;11.016;2023-12-29T06:17:47;1.43;;;1.23;;
21299;SDS011;10809;49.476;11.016;2023-12-29T06:20:17;1.37;;;0.90;;
21299;SDS011;10809;49.476;11.016;2023-12-29T06:22:50;0.73;;;0.70;;
21299;SDS011;10809;49.476;11.016;2023-12-29T06:25:21;0.90;;;0.80;;
21299;SDS011;10809;49.476;11.016;2023-12-29T06:27:52;1.00;;;0.90;;
21299;SDS011;10809;49.476;11.016;2023-12-29T06:30:23;1.10;;;0.77;;
21299;SDS011;10809;49.476;11.016;2023-12-29T06:32:53;1.20;;;1.20;;
21299;SDS011;10809;49.476;11.016;2023-12-29T06:35:24;1.47;;;1.10;;
21299;SDS011;10809;49.476;11.016;2023-12-29T06:37:54;1.13;;;1.03;;
21299;SDS011;10809;49.476;11.016;2023-12-29T06:40:27;1.33;;;1.23;;
21299;SDS011;10809;49.476;11.016;2023-12-29T06:42:58;1.20;;;1.10;;
21299;SDS011;10809;49.476;11.016;2023-12-29T06:45:28;1.03;;;0.97;;
21299;SDS011;10809;49.476;11.016;2023-12-29T06:47:58;1.30;;;1.20;;
21299;SDS011;10809;49.476;11.016;2023-12-29T06:50:29;1.30;;;1.20;;
21299;SDS011;10809;49.476;11.016;2023-12-29T06:53:02;1.17;;;1.17;;
21299;SDS011;10809;49.476;11.016;2023-12-29T06:55:33;1.30;;;1.20;;
21299;SDS011;10809;49.476;11.016;2023-12-29T06:58:09;1.30;;;1.23;;
21299;SDS011;10809;49.476;11.016;2023-12-29T07:00:40;1.70;;;1.57;;
21299;SDS011;10809;49.476;11.016;2023-12-29T07:03:14;1.73;;;1.17;;
21299;SDS011;10809;49.476;11.016;2023-12-29T07:05:45;1.40;;;1.30;;
21299;SDS011;10809;49.476;11.016;2023-12-29T07:08:15;1.50;;;1.40;;
21299;SDS011;10809;49.476;11.016;2023-12-29T07:10:45;1.27;;;1.17;;
21299;SDS011;10809;49.476;11.016;2023-12-29T07:13:20;1.63;;;1.53;;
21299;SDS011;10809;49.476;11.016;2023-12-29T07:15:50;1.50;;;1.20;;
21299;SDS011;10809;49.476;11.016;2023-12-29T07:18:21;1.47;;;1.30;;
21299;SDS011;10809;49.476;11.016;2023-12-29T07:20:51;1.57;;;1.37;;
21299;SDS011;10809;49.476;11.016;2023-12-29T07:23:21;1.17;;;1.10;;
21299;SDS011;10809;49.476;11.016;2023-12-29T07:25:55;1.50;;;1.40;;
21299;SDS011;10809;49.476;11.016;2023-12-29T07:28:28;1.83;;;1.53;;
21299;SDS011;10809;49.476;11.016;2023-12-29T07:30:59;2.80;;;1.80;;
21299;SDS011;10809;49.476;11.016;2023-12-29T07:33:30;3.93;;;2.07;;
21299;SDS011;10809;49.476;11.016;2023-12-29T07:36:00;2.07;;;1.40;;
21299;SDS011;10809;49.476;11.016;2023-12-29T07:38:31;1.60;;;1.40;;
21299;SDS011;10809;49.476;11.016;2023-12-29T07:41:04;1.37;;;1.27;;
21299;SDS011;10809;49.476;11.016;2023-12-29T07:43:34;1.27;;;1.00;;
21299;SDS011;10809;49.476;11.016;2023-12-29T07:46:06;0.80;;;0.80;;
21299;SDS011;10809;49.476;11.016;2023-12-29T07:48:36;0.63;;;0.63;;
21299;SDS011;10809;49.476;11.016;2023-12-29T07:51:09;0.80;;;0.70;;
21299;SDS011;10809;49.476;11.016;2023-12-29T07:53:40;0.47;;;0.47;;
21299;SDS011;10809;49.476;11.016;2023-12-29T07:56:10;0.90;;;0.60;;
21299;SDS011;10809;49.476;11.016;2023-12-29T07:58:41;0.50;;;0.50;;
21299;SDS011;10809;49.476;11.016;2023-12-29T08:01:11;0.40;;;0.40;;
21299;SDS011;10809;49.476;11.016;2023-12-29T08:03:41;0.60;;;0.60;;
21299;SDS011;10809;49.476;11.016;2023-12-29T08:06:11;0.67;;;0.67;;
21299;SDS011;10809;49.476;11.016;2023-12-29T08:08:45;0.50;;;0.50;;
21299;SDS011;10809;49.476;11.016;2023-12-29T08:11:16;0.40;;;0.40;;
21299;SDS011;10809;49.476;11.016;2023-12-29T08:13:47;0.67;;;0.30;;
21299;SDS011;10809;49.476;11.016;2023-12-29T08:16:19;0.40;;;0.40;;
21299;SDS011;10809;49.476;11.016;2023-12-29T08:18:49;0.50;;;0.50;;
21299;SDS011;10809;49.476;11.016;2023-12-29T08:21:20;0.50;;;0.50;;
21299;SDS011;10809;49.476;11.016;2023-12-29T08:23:50;0.20;;;0.20;;
21299;SDS011;10809;49.476;11.016;2023-12-29T08:26:20;0.23;;;0.23;;
21299;SDS011;10809;49.476;11.016;2023-12-29T08:28:51;0.30;;;0.30;;
21299;SDS011;10809;49.476;11.016;2023-12-29T08:31:21;0.43;;;0.43;;
21299;SDS011;10809;49.476;11.016;2023-12-29T08:33:56;0.83;;;0.40;;
21299;SDS011;10809;49.476;11.016;2023-12-29T08:36:33;0.40;;;0.40;;
21299;SDS011;10809;49.476;11.016;2023-12-29T08:39:03;0.33;;;0.33;;
21299;SDS011;10809;49.476;11.016;2023-12-29T08:41:33;0.40;;;0.40;;
21299;SDS011;10809;49.476;11.016;2023-12-29T08:44:04;0.40;;;0.40;;
21299;SDS011;10809;49.476;11.016;2023-12-29T08:46:34;0.50;;;0.50;;
21299;SDS011;10809;49.476;11.016;2023-12-29T08:49:04;0.57;;;0.47;;
21299;SDS011;10809;49.476;11.016;2023-12-29T08:51:34;0.30;;;0.30;;
21299;SDS011;10809;49.476;11.016;2023-12-29T08:54:05;0.60;;;0.30;;
21299;SDS011;10809;49.476;11.016;2023-12-29T08:56:35;0.53;;;0.20;;
21299;SDS011;10809;49.476;11.016;2023-12-29T08:59:05;1.47;;;0.60;;
21299;SDS011;10809;49.476;11.016;2023-12-29T09:01:36;0.60;;;0.50;;
21299;SDS011;10809;49.476;11.016;2023-12-29T09:04:06;0.50;;;0.40;;
21299;SDS011;10809;49.476;11.016;2023-12-29T09:06:37;0.30;;;0.30;;
21299;SDS011;10809;49.476;11.016;2023-12-29T09:09:07;0.20;;;0.20;;
21299;SDS011;10809;49.476;11.016;2023-12-29T09:11:42;0.30;;;0.30;;
21299;SDS011;10809;49.476;11.016;2023-12-29T09:14:13;0.50;;;0.50;;
21299;SDS011;10809;49.476;11.016;2023-12-29T09:16:43;0.37;;;0.37;;
21299;SDS011;10809;49.476;11.016;2023-12-29T09:19:16;0.33;;;0.30;;
21299;SDS011;10809;49.476;11.016;2023-12-29T09:21:46;0.30;;;0.20;;
21299;SDS011;10809;49.476;11.016;2023-12-29T09:24:17;0.50;;;0.30;;
21299;SDS011;10809;49.476;11.016;2023-12-29T09:26:47;0.77;;;0.43;;
21299;SDS011;10809;49.476;11.016;2023-12-29T09:29:17;0.47;;;0.30;;
21299;SDS011;10809;49.476;11.016;2023-12-29T09:31:48;0.27;;;0.27;;
21299;SDS011;10809;49.476;11.016;2023-12-29T09:34:18;0.47;;;0.47;;
21299;SDS011;10809;49.476;11.016;2023-12-29T09:36:48;0.97;;;0.20;;
21299;SDS011;10809;49.476;11.016;2023-12-29T09:39:18;0.20;;;0.20;;
21299;SDS011;10809;49.476;11.016;2023-12-29T09:41:51;1.40;;;0.30;;
21299;SDS011;10809;49.476;11.016;2023-12-29T09:44:22;0.30;;;0.30;;
21299;SDS011;10809;49.476;11.016;2023-12-29T09:46:53;0.37;;;0.37;;
21299;SDS011;10809;49.476;11.016;2023-12-29T09:49:24;0.40;;;0.30;;
21299;SDS011;10809;49.476;11.016;2023-12-29T09:51:56;0.30;;;0.30;;
21299;SDS011;10809;49.476;11.016;2023-12-29T09:54:28;0.40;;;0.30;;
21299;SDS011;10809;49.476;11.016;2023-12-29T09:57:01;0.30;;;0.30;;
21299;SDS011;10809;49.476;11.016;2023-12-29T09:59:36;0.20;;;0.20;;
21299;SDS011;10809;49.476;11.016;2023-12-29T10:02:14;0.20;;;0.20;;
21299;SDS011;10809;49.476;11.016;2023-12-29T10:04:48;0.20;;;0.20;;
21299;SDS011;10809;49.476;11.016;2023-12-29T10:07:25;0.53;;;0.30;;
21299;SDS011;10809;49.476;11.016;2023-12-29T10:09:57;0.10;;;0.10;;
21299;SDS011;10809;49.476;11.016;2023-12-29T10:12:28;0.30;;;0.30;;
21299;SDS011;10809;49.476;11.016;2023-12-29T10:26:12;0.40;;;0.40;;
21299;SDS011;10809;49.476;11.016;2023-12-29T10:28:43;0.27;;;0.27;;
21299;SDS011;10809;49.476;11.016;2023-12-29T10:31:17;0.30;;;0.30;;
21299;SDS011;10809;49.476;11.016;2023-12-29T10:33:48;0.53;;;0.50;;
21299;SDS011;10809;49.476;11.016;2023-12-29T10:36:20;0.33;;;0.33;;
21299;SDS011;10809;49.476;11.016;2023-12-29T10:39:05;0.40;;;0.40;;
21299;SDS011;10809;49.476;11.016;2023-12-29T10:41:40;0.73;;;0.40;;
21299;SDS011;10809;49.476;11.016;2023-12-29T10:44:11;3.00;;;0.70;;
21299;SDS011;10809;49.476;11.016;2023-12-29T10:46:42;0.20;;;0.20;;
21299;SDS011;10809;49.476;11.016;2023-12-29T10:49:12;0.30;;;0.30;;
21299;SDS011;10809;49.476;11.016;2023-12-29T10:51:43;0.30;;;0.30;;
21299;SDS011;10809;49.476;11.016;2023-12-29T10:54:20;0.47;;;0.47;;
21299;SDS011;10809;49.476;11.016;2023-12-29T10:57:00;0.73;;;0.47;;
21299;SDS011;10809;49.476;11.016;2023-12-29T10:59:31;0.53;;;0.50;;
21299;SDS011;10809;49.476;11.016;2023-12-29T11:02:02;0.67;;;0.53;;
21299;SDS011;10809;49.476;11.016;2023-12-29T11:04:35;0.90;;;0.30;;
21299;SDS011;10809;49.476;11.016;2023-12-29T11:07:05;0.53;;;0.50;;
21299;SDS011;10809;49.476;11.016;2023-12-29T11:09:37;0.70;;;0.70;;
21299;SDS011;10809;49.476;11.016;2023-12-29T11:12:07;0.90;;;0.73;;
21299;SDS011;10809;49.476;11.016;2023-12-29T11:14:39;0.80;;;0.80;;
21299;SDS011;10809;49.476;11.016;2023-12-29T11:17:14;1.13;;;1.00;;
21299;SDS011;10809;49.476;11.016;2023-12-29T11:19:46;1.20;;;0.97;;
21299;SDS011;10809;49.476;11.016;2023-12-29T11:22:21;0.97;;;0.90;;
21299;SDS011;10809;49.476;11.016;2023-12-29T11:24:52;0.73;;;0.73;;
21299;SDS011;10809;49.476;11.016;2023-12-29T11:27:22;0.90;;;0.90;;
21299;SDS011;10809;49.476;11.016;2023-12-29T11:29:55;4.47;;;1.20;;
21299;SDS011;10809;49.476;11.016;2023-12-29T11:40:45;1.10;;;1.00;;
21299;SDS011;10809;49.476;11.016;2023-12-29T11:43:20;0.93;;;0.93;;
21299;SDS011;10809;49.476;11.016;2023-12-29T11:45:51;1.30;;;1.20;;
21299;SDS011;10809;49.476;11.016;2023-12-29T11:51:27;1.37;;;1.10;;
21299;SDS011;10809;49.476;11.016;2023-12-29T11:54:20;1.13;;;1.07;;
21299;SDS011;10809;49.476;11.016;2023-12-29T11:56:52;1.13;;;1.10;;
21299;SDS011;10809;49.476;11.016;2023-12-29T11:59:26;1.13;;;1.03;;
21299;SDS011;10809;49.476;11.016;2023-12-29T12:02:00;0.47;;;0.47;;
21299;SDS011;10809;49.476;11.016;2023-12-29T12:04:40;0.63;;;0.63;;
21299;SDS011;10809;49.476;11.016;2023-12-29T12:12:54;0.30;;;0.30;;
21299;SDS011;10809;49.476;11.016;2023-12-29T12:20:39;0.60;;;0.30;;
21299;SDS011;10809;49.476;11.016;2023-12-29T12:23:18;0.40;;;0.37;;
21299;SDS011;10809;49.476;11.016;2023-12-29T12:25:50;0.57;;;0.30;;
21299;SDS011;10809;49.476;11.016;2023-12-29T12:28:30;0.27;;;0.27;;
21299;SDS011;10809;49.476;11.016;2023-12-29T12:31:05;0.30;;;0.30;;
21299;SDS011;10809;49.476;11.016;2023-12-29T12:33:36;0.30;;;0.30;;
21299;SDS011;10809;49.476;11.016;2023-12-29T12:36:07;0.40;;;0.40;;
21299;SDS011;10809;49.476;11.016;2023-12-29T12:38:39;0.27;;;0.23;;
21299;SDS011;10809;49.476;11.016;2023-12-29T12:41:26;0.50;;;0.30;;
21299;SDS011;10809;49.476;11.016;2023-12-29T12:44:03;0.47;;;0.47;;
21299;SDS011;10809;49.476;11.016;2023-12-29T12:46:50;0.93;;;0.30;;
21299;SDS011;10809;49.476;11.016;2023-12-29T12:49:25;0.60;;;0.30;;
21299;SDS011;10809;49.476;11.016;2023-12-29T12:51:55;0.30;;;0.30;;
21299;SDS011;10809;49.476;11.016;2023-12-29T12:54:26;0.30;;;0.30;;
21299;SDS011;10809;49.476;11.016;2023-12-29T12:56:56;0.57;;;0.40;;
21299;SDS011;10809;49.476;11.016;2023-12-29T12:59:27;0.20;;;0.20;;
21299;SDS011;10809;49.476;11.016;2023-12-29T13:02:02;0.17;;;0.17;;
21299;SDS011;10809;49.476;11.016;2023-12-29T13:04:33;0.30;;;0.30;;
21299;SDS011;10809;49.476;11.016;2023-12-29T13:07:06;0.30;;;0.30;;
21299;SDS011;10809;49.476;11.016;2023-12-29T13:09:36;0.20;;;0.20;;
21299;SDS011;10809;49.476;11.016;2023-12-29T13:12:07;0.20;;;0.20;;
21299;SDS011;10809;49.476;11.016;2023-12-29T13:14:42;0.30;;;0.30;;
21299;SDS011;10809;49.476;11.016;2023-12-29T13:17:13;0.37;;;0.20;;
21299;SDS011;10809;49.476;11.016;2023-12-29T13:19:45;0.30;;;0.30;;
21299;SDS011;10809;49.476;11.016;2023-12-29T13:22:15;0.53;;;0.50;;
21299;SDS011;10809;49.476;11.016;2023-12-29T13:24:46;0.30;;;0.30;;
21299;SDS011;10809;49.476;11.016;2023-12-29T13:27:16;0.30;;;0.30;;
21299;SDS011;10809;49.476;11.016;2023-12-29T13:29:47;0.20;;;0.20;;
21299;SDS011;10809;49.476;11.016;2023-12-29T13:32:27;0.20;;;0.20;;
21299;SDS011;10809;49.476;11.016;2023-12-29T13:35:04;0.30;;;0.30;;
21299;SDS011;10809;49.476;11.016;2023-12-29T13:40:32;0.20;;;0.20;;
21299;SDS011;10809;49.476;11.016;2023-12-29T13:43:13;0.30;;;0.30;;
21299;SDS011;10809;49.476;11.016;2023-12-29T13:45:46;0.30;;;0.30;;
21299;SDS011;10809;49.476;11.016;2023-12-29T13:48:20;0.30;;;0.30;;
21299;SDS011;10809;49.476;11.016;2023-12-29T13:50:51;0.60;;;0.30;;
21299;SDS011;10809;49.476;11.016;2023-12-29T13:53:22;0.40;;;0.40;;
21299;SDS011;10809;49.476;11.016;2023-12-29T13:56:05;0.57;;;0.47;;
21299;SDS011;10809;49.476;11.016;2023-12-29T13:58:39;1.23;;;0.77;;
21299;SDS011;10809;49.476;11.016;2023-12-29T14:01:10;4.17;;;0.77;;
21299;SDS011;10809;49.476;11.016;2023-12-29T14:03:47;0.40;;;0.40;;
21299;SDS011;10809;49.476;11.016;2023-12-29T14:06:32;1.40;;;1.30;;
21299;SDS011;10809;49.476;11.016;2023-12-29T14:09:15;1.10;;;1.00;;
21299;SDS011;10809;49.476;11.016;2023-12-29T14:11:46;0.50;;;0.50;;
21299;SDS011;10809;49.476;11.016;2023-12-29T14:14:21;0.43;;;0.40;;
21299;SDS011;10809;49.476;11.016;2023-12-29T14:16:55;0.33;;;0.30;;
21299;SDS011;10809;49.476;11.016;2023-12-29T14:19:25;0.30;;;0.30;;
21299;SDS011;10809;49.476;11.016;2023-12-29T14:21:56;0.67;;;0.27;;
21299;SDS011;10809;49.476;11.016;2023-12-29T14:24:26;0.30;;;0.30;;
21299;SDS011;10809;49.476;11.016;2023-12-29T14:26:57;0.43;;;0.40;;
21299;SDS011;10809;49.476;11.016;2023-12-29T14:29:40;0.20;;;0.20;;
21299;SDS011;10809;49.476;11.016;2023-12-29T14:32:11;0.37;;;0.37;;
21299;SDS011;10809;49.476;11.016;2023-12-29T14:34:41;0.20;;;0.20;;
21299;SDS011;10809;49.476;11.016;2023-12-29T14:37:12;0.40;;;0.40;;
21299;SDS011;10809;49.476;11.016;2023-12-29T14:39:46;0.37;;;0.37;;
21299;SDS011;10809;49.476;11.016;2023-12-29T14:42:18;0.40;;;0.40;;
21299;SDS011;10809;49.476;11.016;2023-12-29T14:44:48;0.50;;;0.50;;
21299;SDS011;10809;49.476;11.016;2023-12-29T14:47:18;0.40;;;0.40;;
21299;SDS011;10809;49.476;11.016;2023-12-29T14:49:49;0.20;;;0.20;;
21299;SDS011;10809;49.476;11.016;2023-12-29T14:52:20;0.30;;;0.30;;
21299;SDS011;10809;49.476;11.016;2023-12-29T14:54:51;0.40;;;0.40;;
21299;SDS011;10809;49.476;11.016;2023-12-29T14:57:25;0.30;;;0.30;;
21299;SDS011;10809;49.476;11.016;2023-12-29T14:59:55;0.33;;;0.33;;
21299;SDS011;10809;49.476;11.016;2023-12-29T15:02:25;1.30;;;0.50;;
21299;SDS011;10809;49.476;11.016;2023-12-29T15:04:55;0.87;;;0.50;;
21299;SDS011;10809;49.476;11.016;2023-12-29T15:07:26;0.40;;;0.40;;
21299;SDS011;10809;49.476;11.016;2023-12-29T15:10:00;0.83;;;0.40;;
21299;SDS011;10809;49.476;11.016;2023-12-29T15:12:30;0.40;;;0.40;;
21299;SDS011;10809;49.476;11.016;2023-12-29T15:15:01;0.37;;;0.37;;
21299;SDS011;10809;49.476;11.016;2023-12-29T15:17:33;0.50;;;0.50;;
21299;SDS011;10809;49.476;11.016;2023-12-29T15:20:03;0.97;;;0.50;;
21299;SDS011;10809;49.476;11.016;2023-12-29T15:22:34;0.30;;;0.30;;
21299;SDS011;10809;49.476;11.016;2023-12-29T15:25:05;0.27;;;0.27;;
21299;SDS011;10809;49.476;11.016;2023-12-29T15:27:36;0.20;;;0.20;;
21299;SDS011;10809;49.476;11.016;2023-12-29T15:30:07;0.87;;;0.60;;
21299;SDS011;10809;49.476;11.016;2023-12-29T15:32:38;0.50;;;0.50;;
21299;SDS011;10809;49.476;11.016;2023-12-29T15:35:08;1.27;;;1.17;;
21299;SDS011;10809;49.476;11.016;2023-12-29T15:37:38;0.90;;;0.90;;
21299;SDS011;10809;49.476;11.016;2023-12-29T15:40:09;0.77;;;0.70;;